Time;durP1;ratioP1;P1;durP2;ratioP2;P2;SDS_P1;SDS_P2;PMS_P1;PMS_P2;Temp;Humidity;BMP_temperature;BMP_pressure;BME280_temperature;BME280_humidity;BME280_pressure;Samples;Min_cycle;Max_cycle;Signal;HPM_P1;HPM_P2
2023/06/07 00:01:46;;;;;;;4.47;4.10;;;20.20;43.10;;;;;;20576;6750;336878;-76
2023/06/07 00:04:21;;;;;;;3.67;3.40;;;20.20;43.30;;;;;;20708;6751;118200;-75
2023/06/07 00:07:00;;;;;;;3.50;3.30;;;19.80;43.60;;;;;;20783;6742;121828;-76
2023/06/07 00:09:32;;;;;;;4.00;3.70;;;19.30;44.20;;;;;;20589;6761;280170;-75
2023/06/07 00:12:08;;;;;;;4.03;3.77;;;19.40;44.80;;;;;;20575;6742;277114;-76
2023/06/07 00:14:44;;;;;;;3.60;3.30;;;19.60;44.40;;;;;;20667;6757;117600;-76
2023/06/07 00:17:20;;;;;;;3.90;3.47;;;19.30;44.30;;;;;;20783;6752;117918;-76
2023/06/07 00:19:55;;;;;;;3.60;3.40;;;18.90;44.70;;;;;;20871;6731;117357;-76
2023/06/07 00:22:33;;;;;;;3.90;3.43;;;18.60;45.10;;;;;;20911;6716;118553;-76
2023/06/07 00:25:06;;;;;;;4.17;3.87;;;18.40;45.50;;;;;;20770;6731;117154;-75
2023/06/07 00:27:42;;;;;;;4.25;3.87;;;18.20;45.70;;;;;;20661;6744;281280;-75
2023/06/07 00:30:17;;;;;;;4.47;4.17;;;18.50;46.10;;;;;;20606;6750;309164;-76
2023/06/07 00:32:54;;;;;;;4.32;4.10;;;18.90;45.50;;;;;;20668;6735;306544;-76
2023/06/07 00:35:30;;;;;;;4.23;3.80;;;19.10;45.00;;;;;;20921;6719;116787;-75
2023/06/07 00:38:05;;;;;;;3.33;3.13;;;18.90;45.00;;;;;;20912;6720;118984;-76
2023/06/07 00:40:41;;;;;;;3.87;3.67;;;18.50;45.40;;;;;;20828;6735;117509;-75
2023/06/07 00:43:16;;;;;;;3.77;3.40;;;18.20;45.80;;;;;;20851;6735;116905;-76
2023/06/07 00:45:53;;;;;;;4.20;4.00;;;18.20;46.50;;;;;;20658;6791;310637;-75
2023/06/07 00:48:28;;;;;;;3.40;3.30;;;18.20;46.50;;;;;;20857;6735;117244;-75
2023/06/07 00:51:05;;;;;;;4.07;3.78;;;18.30;46.10;;;;;;20633;6749;298854;-76
2023/06/07 00:53:40;;;;;;;4.18;3.87;;;18.30;46.10;;;;;;20572;6742;314278;-75
2023/06/07 00:56:16;;;;;;;4.17;3.87;;;18.60;45.60;;;;;;20834;6742;117015;-76
2023/06/07 00:58:51;;;;;;;4.50;4.20;;;18.50;45.60;;;;;;20581;6757;306756;-75
2023/06/07 01:01:28;;;;;;;4.10;3.80;;;18.80;46.40;;;;;;20626;6750;297039;-76
2023/06/07 01:04:05;;;;;;;4.10;3.90;;;18.80;45.80;;;;;;20446;6772;310263;-76
2023/06/07 01:06:39;;;;;;;3.90;3.70;;;19.00;45.10;;;;;;20851;6759;117133;-76
2023/06/07 01:09:14;;;;;;;3.97;3.73;;;18.80;45.20;;;;;;20617;6750;307367;-75
2023/06/07 01:11:50;;;;;;;3.70;3.50;;;18.80;45.70;;;;;;20859;6750;120366;-76
2023/06/07 01:14:27;;;;;;;3.57;3.37;;;18.60;45.70;;;;;;20673;6758;119230;-76
2023/06/07 01:17:03;;;;;;;4.03;3.83;;;18.20;45.90;;;;;;20889;6735;119752;-76
2023/06/07 01:19:39;;;;;;;4.07;3.87;;;18.20;46.60;;;;;;20606;6750;281559;-76
2023/06/07 01:22:16;;;;;;;4.53;3.95;;;18.10;46.50;;;;;;20609;6728;336888;-79
2023/06/07 01:24:52;;;;;;;4.13;3.93;;;18.50;45.80;;;;;;20703;6743;117596;-76
2023/06/07 01:27:30;;;;;;;4.20;4.00;;;18.40;46.20;;;;;;20681;6728;306879;-77
2023/06/07 01:30:03;;;;;;;4.23;3.93;;;18.40;46.20;;;;;;20795;6742;119455;-76
2023/06/07 01:32:39;;;;;;;3.80;3.50;;;18.30;46.10;;;;;;20859;6742;117463;-76
2023/06/07 01:35:14;;;;;;;4.03;3.77;;;18.00;46.40;;;;;;20699;6742;119054;-76
2023/06/07 01:37:50;;;;;;;4.33;3.80;;;17.70;46.60;;;;;;20865;6742;116953;-78
2023/06/07 01:40:26;;;;;;;4.47;4.17;;;17.70;46.80;;;;;;20663;6731;306919;-84
2023/06/07 01:43:03;;;;;;;4.32;4.05;;;17.70;47.00;;;;;;20610;6731;305373;-76
2023/06/07 01:45:39;;;;;;;4.10;3.90;;;18.10;46.50;;;;;;20912;6730;116676;-76
2023/06/07 01:48:18;;;;;;;4.60;4.30;;;17.90;46.40;;;;;;20620;6716;305935;-76
2023/06/07 01:50:53;;;;;;;4.70;4.40;;;18.00;46.70;;;;;;20654;6742;276677;-76
2023/06/07 01:53:29;;;;;;;4.40;4.10;;;18.20;46.50;;;;;;20876;6727;118378;-77
2023/06/07 01:56:08;;;;;;;4.23;3.87;;;18.00;46.50;;;;;;20827;6716;116820;-77
2023/06/07 01:59:03;;;;;;;4.40;4.20;;;17.60;47.00;;;;;;20693;6731;299625;-76
2023/06/07 02:01:42;;;;;;;4.90;4.50;;;17.70;47.50;;;;;;20697;6731;276402;-76
2023/06/07 02:04:17;;;;;;;5.00;4.60;;;18.10;47.00;;;;;;20582;6731;307202;-76
2023/06/07 02:06:53;;;;;;;4.53;4.23;;;18.30;46.30;;;;;;20847;6731;116928;-76
2023/06/07 02:09:28;;;;;;;4.47;4.17;;;18.10;46.40;;;;;;20923;6725;117387;-76
2023/06/07 02:12:05;;;;;;;4.20;4.00;;;17.80;46.80;;;;;;20849;6781;118021;-77
2023/06/07 02:14:41;;;;;;;4.20;3.90;;;17.40;47.10;;;;;;20779;6735;117934;-76
2023/06/07 02:17:15;;;;;;;4.30;4.00;;;17.20;47.30;;;;;;20884;6734;119110;-77
2023/06/07 02:19:51;;;;;;;4.10;3.90;;;17.10;47.70;;;;;;20576;6746;306671;-76
2023/06/07 02:22:28;;;;;;;4.23;4.03;;;17.30;47.80;;;;;;20609;6746;311356;-79
2023/06/07 02:25:04;;;;;;;4.37;3.97;;;17.70;47.60;;;;;;20718;6731;118325;-75
2023/06/07 02:27:40;;;;;;;4.90;4.60;;;17.60;46.80;;;;;;20735;6716;280840;-76
2023/06/07 02:30:15;;;;;;;4.80;4.40;;;17.80;47.00;;;;;;20700;6716;277373;-76
2023/06/07 02:32:54;;;;;;;5.00;4.70;;;18.00;46.50;;;;;;20645;6742;341394;-75
2023/06/07 02:35:27;;;;;;;4.33;4.03;;;18.20;46.30;;;;;;20893;6727;117294;-75
2023/06/07 02:38:02;;;;;;;4.87;4.43;;;17.90;46.50;;;;;;20856;6727;116931;-76
2023/06/07 02:40:38;;;;;;;4.27;4.00;;;17.10;48.10;;;;;;20825;6742;117011;-75
2023/06/07 02:43:15;;;;;;;4.90;4.60;;;17.10;47.50;;;;;;20504;6756;310618;-75
2023/06/07 02:45:51;;;;;;;4.37;4.17;;;17.30;47.90;;;;;;20814;6735;117874;-75
2023/06/07 02:48:27;;;;;;;5.10;4.70;;;17.20;47.70;;;;;;20565;6735;306842;-74
2023/06/07 02:51:02;;;;;;;4.47;4.20;;;17.40;47.60;;;;;;20798;6735;118200;-75
2023/06/07 02:53:38;;;;;;;5.00;4.70;;;17.30;47.50;;;;;;20575;6750;284522;-75
2023/06/07 02:56:14;;;;;;;4.60;4.30;;;17.30;47.80;;;;;;20819;6735;116918;-75
2023/06/07 02:58:50;;;;;;;5.30;4.90;;;17.30;47.90;;;;;;20607;6756;306710;-76
2023/06/07 03:01:30;;;;;;;4.10;3.90;;;17.40;48.00;;;;;;20891;6742;118980;-76
2023/06/07 03:04:03;;;;;;;3.97;3.77;;;17.30;48.10;;;;;;20786;6741;127787;-76
2023/06/07 03:06:40;;;;;;;4.50;4.10;;;17.00;48.40;;;;;;20673;6735;277146;-76
2023/06/07 03:09:15;;;;;;;4.70;4.40;;;17.30;49.20;;;;;;20653;6742;306064;-76
2023/06/07 03:11:50;;;;;;;4.32;4.12;;;17.60;48.70;;;;;;20638;6742;340015;-76
2023/06/07 03:14:26;;;;;;;4.10;3.80;;;17.90;47.40;;;;;;20826;6727;117333;-76
2023/06/07 03:17:02;;;;;;;4.00;3.70;;;17.70;47.40;;;;;;20914;6742;117204;-76
2023/06/07 03:19:37;;;;;;;4.40;4.10;;;17.30;47.70;;;;;;20696;6742;281276;-76
2023/06/07 03:22:13;;;;;;;4.50;4.30;;;17.40;47.70;;;;;;20681;6742;307949;-76
2023/06/07 03:24:51;;;;;;;4.47;4.17;;;17.70;47.10;;;;;;20750;6742;118379;-76
2023/06/07 03:27:24;;;;;;;4.85;4.45;;;17.50;47.20;;;;;;20747;6712;277366;-76
2023/06/07 03:29:59;;;;;;;4.37;4.07;;;17.60;47.40;;;;;;20893;6727;118061;-77
2023/06/07 03:32:35;;;;;;;4.20;3.93;;;17.40;47.40;;;;;;20920;6727;117753;-76
2023/06/07 03:35:11;;;;;;;4.13;3.93;;;17.00;47.70;;;;;;20909;6615;117153;-75
2023/06/07 03:37:47;;;;;;;4.23;4.03;;;16.60;48.60;;;;;;20923;6727;118721;-76
2023/06/07 03:40:23;;;;;;;4.00;3.80;;;16.60;48.50;;;;;;20859;6727;117024;-75
2023/06/07 03:43:01;;;;;;;4.40;4.20;;;16.40;48.70;;;;;;20635;6746;306403;-75
2023/06/07 03:45:37;;;;;;;4.13;3.90;;;16.70;49.00;;;;;;20835;6757;117524;-76
2023/06/07 03:48:13;;;;;;;4.35;4.15;;;16.70;48.80;;;;;;20675;6746;277137;-76
2023/06/07 03:50:54;;;;;;;4.90;4.60;;;17.00;48.80;;;;;;20715;6600;306040;-76
2023/06/07 03:53:24;;;;;;;4.63;4.33;;;17.30;48.00;;;;;;20877;6727;122873;-76
2023/06/07 03:56:00;;;;;;;4.83;4.33;;;17.20;48.10;;;;;;20942;6712;122893;-77
2023/06/07 03:58:36;;;;;;;4.87;4.57;;;16.90;48.70;;;;;;20704;6727;280577;-76
2023/06/07 04:01:11;;;;;;;4.13;3.93;;;17.10;49.40;;;;;;20902;6727;118224;-76
2023/06/07 04:03:46;;;;;;;4.90;4.53;;;17.10;49.20;;;;;;20773;6750;117401;-76
2023/06/07 04:06:24;;;;;;;5.07;4.10;;;16.80;49.30;;;;;;20861;6735;118796;-76
2023/06/07 04:08:59;;;;;;;4.67;4.43;;;16.70;49.70;;;;;;20687;6734;310174;-77
2023/06/07 04:11:37;;;;;;;4.97;4.67;;;16.90;49.80;;;;;;20731;6607;276225;-77
2023/06/07 04:14:10;;;;;;;4.80;4.50;;;17.40;49.20;;;;;;20592;6727;336959;-77
2023/06/07 04:16:45;;;;;;;5.10;4.80;;;17.70;48.40;;;;;;20658;6742;306396;-77
2023/06/07 04:19:21;;;;;;;5.15;4.75;;;17.90;48.00;;;;;;20694;6727;335263;-78
2023/06/07 04:21:56;;;;;;;4.63;4.43;;;18.00;47.90;;;;;;20914;6727;116746;-75
2023/06/07 04:24:32;;;;;;;4.47;3.70;;;17.70;48.10;;;;;;20760;6727;119924;-75
2023/06/07 04:27:11;;;;;;;3.90;3.70;;;17.50;49.50;;;;;;20965;6712;116853;-76
2023/06/07 04:29:43;;;;;;;4.03;3.83;;;17.50;49.90;;;;;;20694;6727;310222;-75
2023/06/07 04:32:19;;;;;;;4.03;3.83;;;18.00;48.70;;;;;;20724;6712;434556;-77
2023/06/07 04:34:55;;;;;;;4.10;3.80;;;18.60;47.30;;;;;;20551;6727;278951;-77
2023/06/07 04:37:31;;;;;;;6.60;6.10;;;19.20;46.10;;;;;;20830;6742;118659;-75
2023/06/07 04:40:07;;;;;;;8.33;7.63;;;19.40;46.10;;;;;;20671;6742;276327;-75
2023/06/07 04:42:44;;;;;;;7.10;6.40;;;19.70;45.30;;;;;;20854;6744;117079;-74
2023/06/07 04:45:18;;;;;;;5.67;5.27;;;19.70;45.20;;;;;;20657;6743;118403;-74
2023/06/07 04:47:56;;;;;;;4.90;4.50;;;19.30;46.00;;;;;;20824;6750;117101;-74
2023/06/07 04:50:30;;;;;;;4.00;3.70;;;19.30;45.90;;;;;;20758;6769;122846;-74
2023/06/07 04:53:05;;;;;;;4.50;4.30;;;19.20;46.00;;;;;;20594;6754;310640;-75
2023/06/07 04:55:44;;;;;;;3.90;3.70;;;19.90;44.40;;;;;;20551;6773;306737;-75
2023/06/07 04:58:18;;;;;;;3.97;3.73;;;19.90;44.40;;;;;;20788;6759;117338;-77
2023/06/07 05:00:53;;;;;;;3.60;3.40;;;19.80;44.50;;;;;;20804;6754;124053;-74
2023/06/07 05:03:31;;;;;;;4.27;3.97;;;19.60;45.60;;;;;;20790;6751;119116;-74
2023/06/07 05:06:04;;;;;;;3.93;3.73;;;19.50;45.30;;;;;;20795;6751;117143;-73
2023/06/07 05:08:41;;;;;;;3.63;3.37;;;19.40;45.50;;;;;;20840;6749;68948;-73
2023/06/07 05:11:16;;;;;;;3.58;3.37;;;19.40;45.60;;;;;;20620;6753;305564;-74
2023/06/07 05:13:52;;;;;;;3.87;3.67;;;19.70;44.80;;;;;;20531;6749;310660;-73
2023/06/07 05:16:32;;;;;;;3.90;3.70;;;20.60;43.40;;;;;;20599;6749;277820;-75
2023/06/07 05:19:05;;;;;;;4.03;3.83;;;20.60;43.30;;;;;;20608;6749;279526;-73
2023/06/07 05:21:41;;;;;;;3.80;3.60;;;20.80;43.00;;;;;;20614;6749;335987;-74
2023/06/07 05:24:16;;;;;;;3.93;3.50;;;21.00;42.80;;;;;;20760;6734;121020;-81
2023/06/07 05:26:53;;;;;;;3.93;3.73;;;20.80;43.20;;;;;;20714;6719;307668;-75
2023/06/07 05:29:29;;;;;;;3.57;3.37;;;20.80;42.80;;;;;;20840;6749;116854;-75
2023/06/07 05:32:06;;;;;;;3.70;3.50;;;20.70;43.10;;;;;;20878;6738;117821;-75
2023/06/07 05:34:45;;;;;;;4.10;3.90;;;20.50;43.50;;;;;;20492;6754;338657;-75
2023/06/07 05:37:17;;;;;;;3.90;3.70;;;20.70;43.10;;;;;;20544;6734;297442;-74
2023/06/07 05:39:53;;;;;;;4.00;3.80;;;21.10;42.60;;;;;;20709;6602;304531;-74
2023/06/07 05:42:28;;;;;;;4.03;3.73;;;21.40;42.30;;;;;;20778;6749;117349;-75
2023/06/07 05:45:04;;;;;;;3.80;3.60;;;21.20;42.50;;;;;;20488;6744;280025;-74
2023/06/07 05:47:43;;;;;;;4.33;4.03;;;21.30;42.30;;;;;;20623;6744;277189;-77
2023/06/07 05:50:19;;;;;;;3.97;3.77;;;21.60;41.70;;;;;;20806;6740;116618;-77
2023/06/07 05:52:56;;;;;;;4.40;4.20;;;21.60;41.70;;;;;;20602;6749;306891;-75
2023/06/07 05:55:28;;;;;;;3.70;3.50;;;21.60;41.70;;;;;;20810;6744;117989;-74
2023/06/07 05:58:04;;;;;;;4.43;4.03;;;21.60;42.10;;;;;;20854;6735;117014;-75
2023/06/07 06:00:40;;;;;;;4.10;3.90;;;21.30;42.40;;;;;;20548;6773;281144;-74
2023/06/07 06:03:20;;;;;;;4.97;4.57;;;21.60;42.10;;;;;;20849;6734;116981;-76
2023/06/07 06:05:53;;;;;;;4.23;4.03;;;21.60;42.00;;;;;;20685;6729;278345;-74
2023/06/07 06:08:29;;;;;;;8.40;4.37;;;21.90;41.80;;;;;;20888;6729;119482;-74
2023/06/07 06:11:05;;;;;;;4.20;3.90;;;21.90;42.30;;;;;;20680;6729;305461;-74
2023/06/07 06:13:40;;;;;;;4.30;3.90;;;22.60;41.50;;;;;;20812;6735;117362;-74
2023/06/07 06:16:16;;;;;;;4.30;3.90;;;23.20;41.90;;;;;;20849;6735;119262;-74
2023/06/07 06:18:52;;;;;;;4.03;3.80;;;23.60;41.90;;;;;;20627;6750;306637;-74
2023/06/07 06:21:28;;;;;;;4.60;4.10;;;25.50;37.60;;;;;;20587;6750;306676;-74
2023/06/07 06:24:04;;;;;;;4.40;4.00;;;25.40;37.50;;;;;;20720;6750;118423;-74
2023/06/07 06:26:40;;;;;;;4.50;3.40;;;26.00;38.00;;;;;;20830;6765;117234;-74
2023/06/07 06:29:15;;;;;;;3.93;3.63;;;26.20;38.20;;;;;;20825;6750;116069;-74
2023/06/07 06:32:00;;;;;;;3.87;3.60;;;26.40;38.30;;;;;;20791;6765;117005;-74
2023/06/07 06:34:26;;;;;;;4.00;3.70;;;26.60;38.00;;;;;;20502;6749;314939;-74
2023/06/07 06:37:04;;;;;;;3.90;3.70;;;27.30;35.10;;;;;;20612;6749;303290;-74
2023/06/07 06:39:37;;;;;;;4.20;3.90;;;28.10;34.20;;;;;;20886;6735;116938;-74
2023/06/07 06:42:14;;;;;;;4.20;3.90;;;28.30;34.60;;;;;;20645;6735;286784;-74
2023/06/07 06:44:49;;;;;;;4.00;3.70;;;28.70;32.80;;;;;;20524;6739;282304;-74
2023/06/07 06:47:25;;;;;;;4.57;4.27;;;29.20;32.00;;;;;;20873;6739;118509;-74
2023/06/07 06:50:01;;;;;;;4.03;3.70;;;29.20;32.60;;;;;;20857;6735;122569;-75
2023/06/07 06:52:43;;;;;;;4.00;3.70;;;29.00;33.40;;;;;;20634;6750;279381;-75
2023/06/07 06:55:19;;;;;;;3.73;3.53;;;29.30;31.90;;;;;;20662;6746;117191;-74
2023/06/07 06:57:55;;;;;;;3.60;3.40;;;29.90;31.50;;;;;;20641;6739;279389;-76
2023/06/07 07:00:35;;;;;;;4.50;4.20;;;29.80;31.10;;;;;;20836;6751;120461;-75
2023/06/07 07:03:06;;;;;;;3.70;3.40;;;30.00;31.90;;;;;;20829;6744;117011;-80
2023/06/07 07:05:42;;;;;;;3.80;3.60;;;29.80;32.10;;;;;;20859;6744;117413;-77
2023/06/07 07:08:17;;;;;;;4.23;3.90;;;29.70;32.40;;;;;;20572;6754;277463;-78
2023/06/07 07:10:57;;;;;;;4.20;3.90;;;30.50;30.30;;;;;;20660;6734;278063;-76
2023/06/07 07:13:32;;;;;;;4.20;3.90;;;30.50;30.30;;;;;;20624;6734;281053;-74
2023/06/07 07:16:08;;;;;;;4.17;3.87;;;31.00;29.90;;;;;;20622;6744;276431;-73
2023/06/07 07:18:44;;;;;;;3.77;3.57;;;30.90;29.80;;;;;;20849;6744;117744;-77
2023/06/07 07:21:20;;;;;;;3.97;3.67;;;30.60;30.20;;;;;;20677;6729;277133;-75
2023/06/07 07:23:55;;;;;;;3.70;3.50;;;30.50;30.00;;;;;;20569;6744;280588;-74
2023/06/07 07:26:32;;;;;;;4.17;3.87;;;30.50;30.00;;;;;;20668;6729;313514;-74
2023/06/07 07:29:07;;;;;;;3.53;3.43;;;30.50;30.00;;;;;;20920;6720;120729;-74
2023/06/07 07:31:43;;;;;;;3.80;3.60;;;30.10;30.40;;;;;;20829;6751;117122;-74
2023/06/07 07:34:18;;;;;;;4.30;3.93;;;29.60;30.90;;;;;;20729;6744;120235;-74
2023/06/07 07:37:41;;;;;;;4.43;4.07;;;29.20;31.40;;;;;;20807;6744;116841;-74
2023/06/07 07:40:17;;;;;;;3.53;3.33;;;28.80;31.90;;;;;;20794;6754;117386;-74
2023/06/07 07:42:52;;;;;;;3.70;3.50;;;28.40;32.40;;;;;;20823;6739;116870;-74
2023/06/07 07:45:27;;;;;;;3.20;3.10;;;28.20;32.70;;;;;;20855;6734;116832;-74
2023/06/07 07:48:03;;;;;;;3.53;3.27;;;28.10;32.90;;;;;;20830;6735;118875;-75
2023/06/07 07:50:40;;;;;;;3.87;3.60;;;28.00;33.10;;;;;;20680;6729;305482;-75
2023/06/07 07:53:18;;;;;;;3.60;3.40;;;28.30;32.70;;;;;;20609;6744;308144;-76
2023/06/07 07:55:52;;;;;;;3.40;3.20;;;28.60;32.40;;;;;;20858;6742;116057;-75
2023/06/07 07:58:28;;;;;;;4.10;3.80;;;28.40;32.50;;;;;;20656;6729;306795;-76
2023/06/07 08:01:12;;;;;;;3.70;3.50;;;28.60;32.30;;;;;;20685;6729;309072;-78
2023/06/07 08:03:39;;;;;;;3.50;3.30;;;28.80;32.30;;;;;;20570;6750;279042;-77
2023/06/07 08:06:15;;;;;;;3.65;3.37;;;28.90;31.80;;;;;;20599;6750;340964;-75
2023/06/07 08:08:50;;;;;;;3.17;3.03;;;29.10;31.80;;;;;;20835;6750;117436;-78
2023/06/07 08:11:29;;;;;;;3.60;3.30;;;28.80;31.90;;;;;;20877;6751;119001;-77
2023/06/07 08:14:01;;;;;;;3.20;3.00;;;28.50;32.50;;;;;;20534;6751;279151;-80
2023/06/07 08:16:37;;;;;;;2.93;2.83;;;28.70;32.30;;;;;;20916;6727;121917;-75
2023/06/07 08:19:13;;;;;;;3.17;2.97;;;28.60;32.30;;;;;;20653;6744;277187;-79
2023/06/07 08:21:48;;;;;;;3.20;2.87;;;28.80;31.40;;;;;;20794;6765;117065;-76
2023/06/07 08:24:24;;;;;;;3.50;3.20;;;28.60;31.70;;;;;;20441;6769;298341;-79
2023/06/07 08:27:01;;;;;;;3.03;2.92;;;28.70;31.90;;;;;;20687;6729;275819;-76
2023/06/07 08:29:37;;;;;;;2.80;2.60;;;28.90;31.40;;;;;;20638;6744;280563;-76
2023/06/07 08:32:13;;;;;;;2.60;2.50;;;29.00;31.60;;;;;;20833;6746;117607;-80
2023/06/07 08:34:48;;;;;;;3.33;2.70;;;28.80;31.70;;;;;;20568;6714;279956;-78
2023/06/07 08:37:23;;;;;;;2.77;2.57;;;28.90;31.50;;;;;;20645;6744;306128;-76
2023/06/07 08:39:59;;;;;;;2.83;2.63;;;29.20;31.30;;;;;;20832;6765;118575;-76
2023/06/07 08:42:35;;;;;;;2.80;2.70;;;29.20;31.30;;;;;;20680;6735;278450;-76
2023/06/07 08:45:10;;;;;;;3.00;2.80;;;29.30;30.10;;;;;;20461;6750;279937;-76
2023/06/07 08:47:46;;;;;;;2.97;2.80;;;29.50;30.00;;;;;;20891;6729;117212;-73
2023/06/07 08:50:21;;;;;;;2.50;2.40;;;29.40;30.10;;;;;;20848;6735;118104;-78
2023/06/07 08:52:57;;;;;;;2.17;2.07;;;29.20;30.50;;;;;;20880;6735;116955;-77
2023/06/07 08:55:36;;;;;;;3.20;2.90;;;28.90;31.50;;;;;;20860;6734;117046;-76
2023/06/07 08:58:12;;;;;;;2.80;2.70;;;28.90;30.80;;;;;;20447;6739;306574;-77
2023/06/07 09:00:47;;;;;;;2.43;2.33;;;29.30;30.50;;;;;;20835;6744;117517;-77
2023/06/07 09:03:23;;;;;;;2.53;2.40;;;29.30;30.50;;;;;;20845;6735;118824;-78
2023/06/07 09:05:59;;;;;;;2.47;2.37;;;29.20;31.10;;;;;;20826;6749;116992;-75
2023/06/07 09:08:36;;;;;;;3.23;2.90;;;29.40;30.40;;;;;;20612;6745;305415;-78
2023/06/07 09:11:11;;;;;;;3.20;3.00;;;29.30;30.60;;;;;;20690;6754;117628;-76
2023/06/07 09:13:46;;;;;;;3.10;2.90;;;29.50;30.30;;;;;;20599;6734;280839;-74
2023/06/07 09:16:22;;;;;;;3.27;2.97;;;29.70;29.50;;;;;;20688;6719;312551;-78
2023/06/07 09:18:57;;;;;;;2.90;2.70;;;29.90;29.50;;;;;;20726;6714;275986;-74
2023/06/07 09:21:40;;;;;;;4.00;3.05;;;30.20;29.60;;;;;;20644;6729;310434;-76
2023/06/07 09:24:13;;;;;;;6.63;3.33;;;30.50;29.30;;;;;;20738;6744;123332;-76
2023/06/07 09:26:49;;;;;;;3.10;2.90;;;30.40;29.20;;;;;;20889;6729;117805;-76
2023/06/07 09:29:27;;;;;;;3.13;2.93;;;30.10;29.70;;;;;;20556;6729;118846;-76
2023/06/07 09:32:20;;;;;;;5.50;3.03;;;29.90;30.00;;;;;;20836;6744;118400;-78
2023/06/07 09:34:55;;;;;;;4.00;3.20;;;29.70;29.90;;;;;;20552;6735;283388;-76
2023/06/07 09:37:47;;;;;;;3.53;3.33;;;29.90;29.20;;;;;;20642;6735;277094;-76
2023/06/07 09:40:24;;;;;;;3.00;2.90;;;30.10;29.30;;;;;;20799;6750;117279;-76
2023/06/07 09:42:59;;;;;;;3.20;2.90;;;30.00;29.70;;;;;;20830;6750;121513;-76
2023/06/07 09:45:35;;;;;;;3.40;3.10;;;29.90;29.50;;;;;;20668;6735;276706;-77
2023/06/07 09:48:10;;;;;;;3.63;3.33;;;30.00;29.60;;;;;;20638;6735;305124;-77
2023/06/07 09:50:56;;;;;;;3.37;3.17;;;30.40;28.70;;;;;;20677;6735;300097;-77
2023/06/07 09:53:32;;;;;;;4.22;3.30;;;30.60;28.30;;;;;;20552;6750;332355;-76
2023/06/07 09:56:17;;;;;;;3.53;2.90;;;30.70;28.20;;;;;;20846;6791;118095;-76
2023/06/07 09:59:05;;;;;;;3.35;3.10;;;30.50;28.20;;;;;;20430;6750;312728;-76
2023/06/07 10:01:51;;;;;;;4.70;3.30;;;30.60;28.70;;;;;;20711;6720;306085;-76
2023/06/07 10:04:24;;;;;;;3.20;3.00;;;30.60;28.70;;;;;;20797;6720;117768;-72
2023/06/07 10:07:01;;;;;;;3.67;3.20;;;30.40;28.70;;;;;;20834;6749;117834;-74
2023/06/07 10:09:36;;;;;;;3.27;3.07;;;30.10;28.80;;;;;;20620;6749;291413;-72
2023/06/07 10:12:12;;;;;;;3.00;2.80;;;30.20;28.70;;;;;;20757;6745;118260;-73
2023/06/07 10:14:47;;;;;;;6.17;5.77;;;30.30;28.50;;;;;;20440;6751;312872;-73
2023/06/07 10:17:29;;;;;;;3.90;3.60;;;30.40;28.40;;;;;;20841;6749;117836;-73
2023/06/07 10:20:05;;;;;;;3.77;3.07;;;30.40;28.40;;;;;;20612;6744;277490;-73
2023/06/07 10:22:40;;;;;;;3.42;3.22;;;30.50;28.30;;;;;;20687;6729;278046;-73
2023/06/07 10:25:16;;;;;;;4.68;3.30;;;30.80;27.80;;;;;;20512;6729;309127;-74
2023/06/07 10:27:55;;;;;;;3.70;3.40;;;31.00;27.90;;;;;;20680;6729;276214;-74
2023/06/07 10:30:31;;;;;;;3.80;3.50;;;31.20;27.80;;;;;;20672;6729;305021;-75
2023/06/07 10:33:06;;;;;;;3.63;3.37;;;31.40;27.10;;;;;;20624;6744;277740;-72
2023/06/07 10:35:44;;;;;;;3.70;3.40;;;31.40;27.60;;;;;;20731;6714;306310;-75
2023/06/07 10:38:19;;;;;;;3.60;3.30;;;31.60;27.10;;;;;;20580;6750;428178;-78
2023/06/07 10:40:55;;;;;;;3.73;3.33;;;31.60;27.20;;;;;;20661;6739;276332;-75
2023/06/07 11:08:17;;;;;;;3.67;3.47;;;31.30;27.00;;;;;;20856;6514;306427;-77
2023/06/07 11:10:43;;;;;;;3.30;2.97;;;31.40;27.10;;;;;;19582;7154;120727;-78
2023/06/07 11:13:08;;;;;;;3.67;3.37;;;31.20;27.20;;;;;;20352;6771;116985;-77
2023/06/07 11:15:35;;;;;;;3.47;3.27;;;30.90;27.20;;;;;;20557;6784;280299;-78
2023/06/07 11:17:59;;;;;;;3.20;3.00;;;30.80;27.10;;;;;;20736;6827;122055;-78
2023/06/07 11:20:38;;;;;;;3.30;3.10;;;30.60;27.20;;;;;;20753;6827;117518;-78
2023/06/07 11:23:23;;;;;;;3.80;3.50;;;30.40;27.70;;;;;;20553;6827;278217;-78
2023/06/07 11:25:49;;;;;;;3.47;3.27;;;30.60;27.80;;;;;;20753;6827;117146;-79
2023/06/07 11:28:15;;;;;;;3.87;3.22;;;30.90;27.80;;;;;;20539;6827;290452;-78
2023/06/07 11:30:43;;;;;;;3.30;3.10;;;31.10;26.60;;;;;;20772;6827;118908;-78
2023/06/07 11:33:09;;;;;;;3.73;3.50;;;31.10;26.70;;;;;;20560;6827;306826;-78
2023/06/07 11:35:34;;;;;;;3.30;3.10;;;31.20;26.40;;;;;;20755;6827;117347;-79
2023/06/07 11:38:03;;;;;;;3.50;3.20;;;31.10;26.40;;;;;;20564;6827;283931;-79
2023/06/07 11:40:28;;;;;;;3.75;3.45;;;31.10;26.30;;;;;;20422;6827;337203;-78
2023/06/07 11:42:54;;;;;;;3.13;3.03;;;31.30;26.60;;;;;;20776;6827;121390;-77
2023/06/07 11:45:19;;;;;;;3.20;2.90;;;31.30;26.60;;;;;;20763;6827;117842;-78
2023/06/07 11:47:49;;;;;;;3.73;3.53;;;31.20;26.60;;;;;;20549;6827;278560;-83
2023/06/07 11:50:15;;;;;;;3.45;3.20;;;31.40;26.90;;;;;;20524;6827;308339;-85
2023/06/07 11:52:42;;;;;;;3.60;3.40;;;31.50;26.70;;;;;;20547;6827;309006;-81
2023/06/07 11:55:08;;;;;;;3.40;3.30;;;31.50;26.70;;;;;;20768;6827;117788;-78
2023/06/07 11:57:37;;;;;;;3.47;3.20;;;31.30;26.70;;;;;;20765;6827;118690;-76
2023/06/07 11:59:58;;;;;;;3.63;3.33;;;30.90;26.80;;;;;;20751;6827;116961;-76
2023/06/07 12:02:24;;;;;;;4.40;3.60;;;30.50;27.10;;;;;;20536;6827;310869;-77
2023/06/07 12:04:50;;;;;;;3.40;3.20;;;30.40;27.40;;;;;;20544;6827;277971;-77
2023/06/07 12:07:19;;;;;;;4.90;3.60;;;30.50;27.70;;;;;;20548;6827;307806;-76
2023/06/07 12:09:45;;;;;;;3.37;3.07;;;30.80;27.40;;;;;;20551;6827;307449;-79
2023/06/07 12:12:14;;;;;;;3.75;3.35;;;31.00;27.30;;;;;;20527;6827;297136;-78
2023/06/07 12:14:40;;;;;;;3.50;3.40;;;30.90;27.30;;;;;;20783;6827;118378;-81
2023/06/07 12:17:06;;;;;;;3.50;3.37;;;30.80;27.20;;;;;;20597;6826;277701;-81
2023/06/07 12:19:31;;;;;;;3.80;3.50;;;30.80;26.80;;;;;;20788;6826;118006;-81
2023/06/07 12:22:03;;;;;;;3.85;3.60;;;30.60;27.20;;;;;;20581;6827;278603;-81
2023/06/07 12:24:28;;;;;;;3.33;3.23;;;30.60;26.50;;;;;;20766;6827;117410;-79
2023/06/07 12:26:56;;;;;;;3.67;3.47;;;30.50;26.60;;;;;;20589;6827;309798;-81
2023/06/07 12:29:29;;;;;;;3.37;3.17;;;30.30;26.80;;;;;;20794;6827;120295;-79
2023/06/07 12:31:55;;;;;;;3.70;3.50;;;30.40;27.20;;;;;;20570;6827;278709;-80
2023/06/07 12:34:22;;;;;;;5.53;3.57;;;30.40;27.20;;;;;;20757;6827;117406;-79
2023/06/07 12:36:50;;;;;;;3.67;3.37;;;30.20;27.40;;;;;;20772;6827;117308;-81
2023/06/07 12:39:15;;;;;;;3.63;3.43;;;30.10;27.30;;;;;;20792;6827;117255;-78
2023/06/07 12:41:41;;;;;;;3.55;3.35;;;30.00;27.60;;;;;;20596;6827;307261;-79
2023/06/07 12:44:12;;;;;;;3.50;3.20;;;30.10;27.20;;;;;;20743;6827;119363;-77
2023/06/07 12:46:37;;;;;;;3.70;3.40;;;30.10;27.40;;;;;;20569;6827;278003;-77
2023/06/07 12:49:05;;;;;;;4.10;3.77;;;30.20;27.90;;;;;;20787;6827;117461;-77
2023/06/07 12:51:33;;;;;;;3.97;3.57;;;30.20;27.70;;;;;;20796;6827;116234;-78
2023/06/07 12:53:57;;;;;;;4.30;3.40;;;29.90;27.80;;;;;;20586;6827;310988;-78
2023/06/07 12:56:23;;;;;;;3.63;3.43;;;30.00;28.10;;;;;;20793;6827;120204;-78
2023/06/07 12:58:48;;;;;;;3.60;3.40;;;30.00;28.50;;;;;;20804;6827;118683;-77
2023/06/07 13:01:14;;;;;;;3.53;3.33;;;29.90;27.70;;;;;;20585;6827;277281;-78
2023/06/07 13:03:41;;;;;;;3.50;3.30;;;30.00;27.50;;;;;;20582;6827;280523;-79
2023/06/07 13:06:06;;;;;;;4.37;3.50;;;30.20;27.20;;;;;;20538;6827;309907;-78
2023/06/07 13:08:32;;;;;;;4.17;3.57;;;30.40;26.80;;;;;;20769;6827;119944;-76
2023/06/07 13:10:58;;;;;;;3.90;3.50;;;30.20;27.20;;;;;;20553;6827;282135;-78
2023/06/07 13:13:23;;;;;;;3.67;3.47;;;30.20;27.80;;;;;;20548;6827;309874;-77
2023/06/07 13:15:49;;;;;;;4.17;3.13;;;30.30;27.70;;;;;;20762;6826;117147;-77
2023/06/07 13:18:14;;;;;;;3.40;3.20;;;30.30;27.60;;;;;;20531;6826;307198;-79
2023/06/07 13:20:40;;;;;;;4.07;3.75;;;30.30;27.20;;;;;;20569;6826;307231;-79
2023/06/07 13:23:05;;;;;;;4.30;3.90;;;30.50;26.50;;;;;;20746;6826;119247;-80
2023/06/07 13:25:31;;;;;;;4.20;3.57;;;30.20;26.50;;;;;;20540;6826;280976;-79
2023/06/07 13:27:57;;;;;;;4.23;3.40;;;29.90;26.90;;;;;;20772;6826;119069;-80
2023/06/07 13:30:23;;;;;;;2.90;2.80;;;29.90;26.80;;;;;;20749;6824;117264;-80
2023/06/07 13:32:48;;;;;;;3.53;3.33;;;29.60;27.00;;;;;;20548;6826;307946;-79
2023/06/07 13:35:14;;;;;;;3.60;3.30;;;29.70;27.20;;;;;;20773;6826;117230;-80
2023/06/07 13:37:40;;;;;;;3.97;3.67;;;29.70;26.90;;;;;;20556;6826;277596;-79